createdAt,value
2022-12-01T00:01:51.892Z,15.90
2022-12-01T00:04:20.495Z,13.97
2022-12-01T00:06:50.007Z,14.47
2022-12-01T00:09:40.515Z,15.30
2022-12-01T00:12:08.705Z,14.97
2022-12-01T00:14:36.902Z,14.50
2022-12-01T00:17:09.848Z,15.23
2022-12-01T00:19:38.353Z,14.17
2022-12-01T00:22:06.623Z,14.17
2022-12-01T00:24:35.806Z,17.07
2022-12-01T00:27:06.101Z,13.57
2022-12-01T00:29:34.708Z,14.40
2022-12-01T00:32:08.802Z,13.87
2022-12-01T00:34:38.100Z,14.53
2022-12-01T00:37:08.357Z,14.13
2022-12-01T00:39:36.653Z,14.33
2022-12-01T00:42:08.674Z,13.97
2022-12-01T00:44:45.456Z,13.43
2022-12-01T00:47:15.367Z,13.40
2022-12-01T00:49:45.840Z,13.20
2022-12-01T00:52:14.879Z,12.70
2022-12-01T00:54:43.154Z,10.87
2022-12-01T00:57:15.086Z,13.10
2022-12-01T00:59:43.678Z,12.80
2022-12-01T01:02:15.024Z,12.97
2022-12-01T01:04:43.151Z,13.10
2022-12-01T01:07:11.401Z,12.27
2022-12-01T01:09:39.827Z,13.80
2022-12-01T01:12:07.913Z,11.40
2022-12-01T01:14:36.849Z,11.50
2022-12-01T01:17:04.955Z,12.27
2022-12-01T01:19:34.725Z,12.23
2022-12-01T01:22:07.656Z,12.47
2022-12-01T01:24:38.171Z,12.10
2022-12-01T01:27:07.045Z,12.83
2022-12-01T01:29:35.364Z,12.60
2022-12-01T01:32:04.206Z,12.07
2022-12-01T01:34:34.418Z,11.27
2022-12-01T01:37:03.929Z,12.73
2022-12-01T01:39:32.096Z,12.23
2022-12-01T01:42:00.187Z,11.40
2022-12-01T01:44:51.554Z,12.80
2022-12-01T01:47:24.467Z,11.73
2022-12-01T01:49:59.403Z,13.77
2022-12-01T01:52:29.122Z,12.70
2022-12-01T01:54:57.287Z,12.90
2022-12-01T01:57:33.140Z,11.43
2022-12-01T02:00:08.226Z,13.40
2022-12-01T02:02:46.869Z,12.50
2022-12-01T02:05:21.164Z,11.93
2022-12-01T02:07:51.587Z,12.97
2022-12-01T02:10:23.398Z,11.80
2022-12-01T02:13:10.274Z,12.63
2022-12-01T02:15:46.280Z,11.97
2022-12-01T02:18:28.320Z,13.40
2022-12-01T02:21:35.144Z,11.17
2022-12-01T02:24:35.745Z,13.20
2022-12-01T02:27:08.200Z,12.90
2022-12-01T02:30:03.398Z,12.57
2022-12-01T02:32:50.038Z,13.13
2022-12-01T02:35:28.786Z,11.87
2022-12-01T02:38:09.274Z,13.33
2022-12-01T02:40:45.216Z,12.57
2022-12-01T02:43:20.368Z,15.10
2022-12-01T02:45:54.032Z,13.80
2022-12-01T02:48:29.562Z,11.90
2022-12-01T02:51:06.962Z,13.30
2022-12-01T02:53:36.638Z,14.00
2022-12-01T02:56:11.976Z,14.07
2022-12-01T02:58:40.745Z,12.73
2022-12-01T03:01:26.018Z,15.27
2022-12-01T03:04:23.195Z,12.87
2022-12-01T03:07:00.246Z,13.57
2022-12-01T03:09:42.565Z,13.87
2022-12-01T03:12:21.117Z,13.40
2022-12-01T03:14:58.635Z,13.50
2022-12-01T03:17:36.160Z,13.57
2022-12-01T03:20:11.772Z,13.53
2022-12-01T03:22:45.620Z,12.73
2022-12-01T03:25:15.273Z,12.63
2022-12-01T03:28:19.183Z,13.50
2022-12-01T03:30:39.078Z,11.63
2022-12-01T03:33:11.799Z,14.80
2022-12-01T03:35:45.871Z,13.07
2022-12-01T03:38:22.305Z,13.27
2022-12-01T03:40:54.835Z,12.83
2022-12-01T03:43:29.353Z,12.90
2022-12-01T03:46:04.783Z,13.77
2022-12-01T03:48:33.706Z,13.33
2022-12-01T03:51:15.308Z,13.40
2022-12-01T03:53:52.687Z,13.10
2022-12-01T03:56:26.269Z,14.20
2022-12-01T03:58:58.117Z,14.73
2022-12-01T04:01:32.633Z,13.50
2022-12-01T04:04:09.032Z,13.97
2022-12-01T04:06:39.754Z,12.63
2022-12-01T04:09:09.335Z,12.73
2022-12-01T04:11:54.674Z,14.60
2022-12-01T04:14:26.451Z,13.23
2022-12-01T04:16:54.780Z,14.53
2022-12-01T04:19:23.074Z,13.87
2022-12-01T04:21:54.265Z,13.60
2022-12-01T04:24:22.910Z,14.30
2022-12-01T04:26:54.871Z,13.70
2022-12-01T04:29:23.311Z,13.93
2022-12-01T04:31:52.310Z,12.17
2022-12-01T04:34:21.474Z,13.53
2022-12-01T04:36:50.952Z,12.67
2022-12-01T04:39:20.831Z,14.40
2022-12-01T04:41:51.274Z,13.73
2022-12-01T04:44:19.552Z,13.90
2022-12-01T04:46:48.112Z,13.97
2022-12-01T04:49:16.642Z,12.60
2022-12-01T04:51:44.776Z,12.97
2022-12-01T04:54:13.154Z,13.67
2022-12-01T04:56:43.046Z,13.43
2022-12-01T04:59:12.252Z,12.97
2022-12-01T05:01:40.644Z,13.50
2022-12-01T05:04:12.887Z,12.63
2022-12-01T05:06:43.940Z,13.13
2022-12-01T05:09:17.977Z,12.30
2022-12-01T05:11:48.066Z,12.43
2022-12-01T05:14:16.139Z,11.83
2022-12-01T05:16:46.380Z,12.87
2022-12-01T05:19:32.504Z,12.53
2022-12-01T05:22:00.953Z,12.63
2022-12-01T05:24:28.881Z,11.30
2022-12-01T05:27:00.945Z,11.73
2022-12-01T05:29:34.134Z,12.60
2022-12-01T05:32:03.245Z,13.30
2022-12-01T05:34:35.362Z,12.60
2022-12-01T05:37:05.622Z,11.00
2022-12-01T05:39:34.929Z,11.83
2022-12-01T05:42:04.975Z,12.13
2022-12-01T05:44:33.027Z,10.90
2022-12-01T05:47:00.993Z,12.10
2022-12-01T05:49:29.509Z,12.43
2022-12-01T05:51:57.365Z,11.43
2022-12-01T05:54:26.668Z,11.50
2022-12-01T05:56:57.545Z,11.27
2022-12-01T05:59:27.728Z,11.80
2022-12-01T06:01:55.897Z,11.37
2022-12-01T06:04:24.403Z,11.33
2022-12-01T06:06:54.845Z,11.40
2022-12-01T06:09:23.435Z,11.33
2022-12-01T06:11:52.817Z,12.67
2022-12-01T06:14:22.639Z,11.30
2022-12-01T06:16:52.295Z,11.83
2022-12-01T06:19:20.678Z,12.33
2022-12-01T06:21:50.865Z,12.33
2022-12-01T06:24:19.054Z,12.03
2022-12-01T06:26:50.852Z,11.23
2022-12-01T06:29:18.778Z,11.87
2022-12-01T06:31:47.147Z,11.40
2022-12-01T06:34:16.942Z,11.37
2022-12-01T06:36:46.320Z,10.70
2022-12-01T06:39:16.479Z,12.03
2022-12-01T06:41:45.359Z,11.40
2022-12-01T06:44:16.335Z,11.90
2022-12-01T06:46:44.678Z,10.40
2022-12-01T06:49:13.505Z,10.73
2022-12-01T06:51:43.086Z,11.20
2022-12-01T06:54:12.987Z,10.90
2022-12-01T06:56:42.974Z,11.37
2022-12-01T06:59:11.276Z,10.90
2022-12-01T07:01:40.161Z,10.77
2022-12-01T07:04:10.926Z,10.10
2022-12-01T07:06:39.050Z,11.17
2022-12-01T07:09:08.713Z,10.37
2022-12-01T07:11:38.653Z,9.87
2022-12-01T07:14:06.703Z,10.43
2022-12-01T07:16:35.727Z,9.20
2022-12-01T07:19:05.504Z,10.80
2022-12-01T07:21:36.850Z,10.63
2022-12-01T07:24:07.291Z,10.30
2022-12-01T07:26:36.811Z,9.73
2022-12-01T07:29:08.733Z,9.10
2022-12-01T07:31:40.359Z,10.03
2022-12-01T07:34:14.637Z,11.33
2022-12-01T07:36:44.825Z,10.10
2022-12-01T07:39:13.511Z,10.80
2022-12-01T07:41:42.839Z,10.03
2022-12-01T07:44:11.824Z,9.53
2022-12-01T07:46:42.383Z,10.67
2022-12-01T07:49:15.467Z,11.27
2022-12-01T07:51:44.186Z,9.73
2022-12-01T07:54:14.284Z,9.60
2022-12-01T07:56:44.115Z,10.30
2022-12-01T07:59:13.530Z,9.63
2022-12-01T08:01:44.632Z,10.63
2022-12-01T08:04:13.955Z,9.10
2022-12-01T08:06:42.399Z,10.40
2022-12-01T08:09:12.869Z,10.07
2022-12-01T08:11:42.208Z,11.23
2022-12-01T08:14:12.192Z,8.77
2022-12-01T08:16:40.828Z,10.97
2022-12-01T08:19:11.658Z,9.53
2022-12-01T08:21:40.343Z,9.67
2022-12-01T08:24:09.646Z,10.60
2022-12-01T08:26:38.051Z,9.33
2022-12-01T08:29:06.443Z,9.93
2022-12-01T08:31:40.204Z,9.77
2022-12-01T08:34:08.897Z,9.97
2022-12-01T08:36:37.343Z,10.67
2022-12-01T08:39:05.593Z,10.03
2022-12-01T08:41:33.930Z,10.10
2022-12-01T08:44:02.046Z,9.70
2022-12-01T08:46:34.236Z,10.20
2022-12-01T08:49:05.216Z,9.57
2022-12-01T08:51:33.816Z,10.90
2022-12-01T08:54:02.359Z,9.50
2022-12-01T08:56:33.483Z,10.53
2022-12-01T08:59:03.793Z,10.80
2022-12-01T09:01:33.339Z,9.97
2022-12-01T09:04:08.523Z,10.10
2022-12-01T09:06:41.647Z,10.17
2022-12-01T09:09:11.285Z,10.47
2022-12-01T09:11:43.620Z,10.77
2022-12-01T09:14:13.315Z,11.30
2022-12-01T09:16:42.053Z,9.23
2022-12-01T09:19:13.335Z,10.70
2022-12-01T09:21:43.364Z,11.03
2022-12-01T09:24:14.296Z,10.50
2022-12-01T09:26:42.380Z,10.67
2022-12-01T09:29:13.522Z,10.80
2022-12-01T09:31:42.707Z,10.83
2022-12-01T09:34:16.276Z,9.30
2022-12-01T09:36:44.799Z,10.00
2022-12-01T09:39:14.681Z,8.63
2022-12-01T09:41:47.172Z,9.77
2022-12-01T09:44:30.349Z,9.40
2022-12-01T09:47:04.593Z,9.03
2022-12-01T09:49:45.563Z,10.57
2022-12-01T09:52:18.064Z,9.03
2022-12-01T09:54:49.813Z,9.60
2022-12-01T09:57:38.000Z,9.77
2022-12-01T10:00:13.319Z,9.83
2022-12-01T10:02:48.475Z,10.53
2022-12-01T10:05:22.197Z,10.30
2022-12-01T10:07:58.710Z,10.27
2022-12-01T10:10:32.519Z,9.50
2022-12-01T10:13:01.379Z,9.83
2022-12-01T10:15:42.175Z,11.53
2022-12-01T10:18:26.507Z,10.33
2022-12-01T10:21:11.019Z,11.53
2022-12-01T10:23:52.839Z,10.37
2022-12-01T10:26:28.782Z,10.57
2022-12-01T10:29:11.860Z,10.23
2022-12-01T10:32:03.241Z,10.53
2022-12-01T10:34:35.369Z,9.57
2022-12-01T10:37:05.416Z,9.27
2022-12-01T10:39:37.790Z,9.27
2022-12-01T10:42:14.927Z,9.33
2022-12-01T10:44:44.340Z,9.30
2022-12-01T10:47:19.456Z,10.43
2022-12-01T10:49:48.482Z,8.90
2022-12-01T10:52:35.447Z,10.20
2022-12-01T10:55:07.722Z,9.60
2022-12-01T10:57:37.576Z,9.77
2022-12-01T11:00:09.268Z,9.07
2022-12-01T11:02:38.480Z,9.53
2022-12-01T11:05:23.391Z,8.77
2022-12-01T11:07:56.096Z,10.00
2022-12-01T11:10:27.261Z,9.33
2022-12-01T11:12:58.596Z,9.77
2022-12-01T11:15:34.546Z,9.30
2022-12-01T11:18:07.977Z,8.30
2022-12-01T11:20:37.802Z,10.00
2022-12-01T11:23:28.739Z,9.00
2022-12-01T11:26:04.338Z,9.63
2022-12-01T11:28:36.525Z,9.97
2022-12-01T11:31:07.473Z,9.50
2022-12-01T11:33:51.440Z,10.33
2022-12-01T11:36:33.128Z,9.27
2022-12-01T11:39:03.782Z,9.87
2022-12-01T11:41:37.809Z,9.00
2022-12-01T11:44:43.027Z,9.10
2022-12-01T11:47:22.545Z,9.97
2022-12-01T11:50:04.527Z,10.07
2022-12-01T11:52:36.443Z,11.10
2022-12-01T11:55:22.816Z,9.10
2022-12-01T11:57:55.990Z,10.73
2022-12-01T12:00:27.324Z,10.80
2022-12-01T12:03:10.022Z,9.50
2022-12-01T12:06:17.862Z,10.83
2022-12-01T12:09:05.020Z,9.40
2022-12-01T12:11:43.744Z,10.80
2022-12-01T12:14:24.586Z,10.93
2022-12-01T12:17:09.891Z,10.73
2022-12-01T12:20:12.395Z,10.80
2022-12-01T12:22:55.251Z,9.97
2022-12-01T12:25:31.504Z,10.27
2022-12-01T12:28:19.764Z,10.93
2022-12-01T12:30:56.099Z,8.23
2022-12-01T12:33:41.229Z,9.10
2022-12-01T12:36:18.776Z,8.77
2022-12-01T12:39:04.374Z,8.70
2022-12-01T12:41:40.654Z,7.63
2022-12-01T12:44:37.307Z,8.50
2022-12-01T12:47:20.319Z,9.13
2022-12-01T12:49:59.735Z,8.90
2022-12-01T12:52:34.282Z,9.70
2022-12-01T12:55:15.289Z,8.57
2022-12-01T12:57:48.570Z,8.60
2022-12-01T13:00:21.473Z,8.53
2022-12-01T13:02:57.915Z,9.63
2022-12-01T13:05:32.899Z,9.37
2022-12-01T13:08:05.443Z,9.00
2022-12-01T13:10:40.707Z,8.87
2022-12-01T13:13:20.357Z,9.60
2022-12-01T13:15:53.403Z,9.50
2022-12-01T13:18:29.119Z,8.33
2022-12-01T13:20:58.977Z,10.20
2022-12-01T13:23:27.516Z,9.30
2022-12-01T13:26:00.562Z,10.93
2022-12-01T13:28:38.183Z,9.90
2022-12-01T13:31:10.170Z,9.97
2022-12-01T13:33:42.540Z,9.20
2022-12-01T13:36:47.079Z,11.83
2022-12-01T13:39:21.384Z,10.90
2022-12-01T13:42:01.601Z,10.43
2022-12-01T13:44:34.547Z,10.07
2022-12-01T13:47:26.728Z,11.77
2022-12-01T13:49:58.323Z,11.60
2022-12-01T13:52:36.813Z,11.70
2022-12-01T13:55:39.125Z,11.87
2022-12-01T13:58:47.549Z,11.30
2022-12-01T14:01:47.695Z,10.67
2022-12-01T14:04:32.680Z,11.30
2022-12-01T14:07:35.885Z,10.63
2022-12-01T14:10:21.041Z,11.77
2022-12-01T14:12:50.397Z,10.70
2022-12-01T14:15:40.331Z,11.97
2022-12-01T14:18:23.539Z,11.43
2022-12-01T14:20:55.472Z,11.57
2022-12-01T14:23:30.650Z,11.47
2022-12-01T14:26:17.343Z,11.67
2022-12-01T14:29:29.028Z,11.00
2022-12-01T14:32:27.250Z,11.43
2022-12-01T14:35:06.808Z,10.60
2022-12-01T14:37:45.360Z,11.63
2022-12-01T14:40:23.557Z,12.50
2022-12-01T14:43:16.668Z,13.20
2022-12-01T14:45:57.041Z,10.87
2022-12-01T14:48:29.107Z,12.70
2022-12-01T14:51:12.346Z,11.63
2022-12-01T14:53:49.838Z,11.37
2022-12-01T14:56:21.048Z,11.53
2022-12-01T14:58:56.147Z,10.43
2022-12-01T15:01:26.878Z,12.40
2022-12-01T15:03:58.895Z,11.20
2022-12-01T15:06:29.503Z,10.90
2022-12-01T15:12:06.815Z,11.27
2022-12-01T15:14:37.012Z,12.40
2022-12-01T15:17:09.183Z,11.87
2022-12-01T15:19:39.785Z,12.47
2022-12-01T15:22:14.293Z,11.63
2022-12-01T15:24:45.665Z,11.77
2022-12-01T15:27:27.525Z,10.97
2022-12-01T15:29:57.300Z,12.50
2022-12-01T15:32:28.132Z,12.40
2022-12-01T15:35:01.595Z,12.73
2022-12-01T15:37:43.501Z,13.30
2022-12-01T15:41:00.151Z,12.90
2022-12-01T15:43:15.541Z,14.53
2022-12-01T15:45:51.834Z,13.40
2022-12-01T15:48:29.133Z,15.30
2022-12-01T15:51:04.596Z,13.70
2022-12-01T15:53:38.608Z,13.80
2022-12-01T15:56:10.690Z,13.77
2022-12-01T15:58:43.854Z,15.90
2022-12-01T16:01:16.240Z,15.80
2022-12-01T16:03:58.415Z,16.40
2022-12-01T16:06:30.532Z,14.93
2022-12-01T16:09:02.692Z,15.80
2022-12-01T16:11:33.127Z,16.20
2022-12-01T16:14:05.115Z,15.03
2022-12-01T16:16:43.701Z,15.70
2022-12-01T16:19:29.864Z,14.90
2022-12-01T16:22:02.740Z,15.03
2022-12-01T16:24:34.267Z,15.50
2022-12-01T16:27:06.460Z,16.47
2022-12-01T16:29:46.465Z,14.17
2022-12-01T16:32:22.062Z,14.03
2022-12-01T16:34:52.497Z,19.27
2022-12-01T16:37:21.620Z,19.27
2022-12-01T16:39:51.913Z,93.83
2022-12-01T16:42:22.593Z,45.33
2022-12-01T16:44:54.425Z,22.47
2022-12-01T16:47:25.777Z,17.00
2022-12-01T16:49:56.784Z,14.70
2022-12-01T16:55:28.443Z,15.63
2022-12-01T16:58:01.676Z,16.20
2022-12-01T17:00:32.018Z,14.20
2022-12-01T17:03:00.316Z,15.33
2022-12-01T17:05:31.444Z,16.13
2022-12-01T17:07:59.841Z,15.37
2022-12-01T17:10:27.842Z,16.77
2022-12-01T17:12:55.968Z,16.20
2022-12-01T17:15:27.446Z,15.77
2022-12-01T17:17:55.602Z,15.67
2022-12-01T17:20:26.079Z,15.60
2022-12-01T17:22:54.777Z,15.80
2022-12-01T17:25:25.242Z,15.90
2022-12-01T17:27:53.312Z,16.07
2022-12-01T17:30:21.886Z,15.70
2022-12-01T17:32:51.756Z,15.27
2022-12-01T17:35:19.763Z,14.33
2022-12-01T17:37:49.203Z,16.20
2022-12-01T17:40:18.096Z,16.77
2022-12-01T17:42:50.428Z,16.27
2022-12-01T17:45:20.650Z,16.03
2022-12-01T17:47:48.661Z,14.80
2022-12-01T17:50:19.952Z,16.93
2022-12-01T17:52:50.479Z,16.63
2022-12-01T17:55:20.486Z,44.23
2022-12-01T17:57:49.285Z,48.53
2022-12-01T18:00:20.203Z,23.13
2022-12-01T18:02:50.523Z,19.20
2022-12-01T18:05:23.024Z,17.17
2022-12-01T18:07:51.685Z,14.87
2022-12-01T18:10:20.400Z,16.33
2022-12-01T18:12:49.212Z,15.93
2022-12-01T18:15:18.421Z,15.83
2022-12-01T18:17:46.728Z,17.70
2022-12-01T18:20:19.882Z,17.00
2022-12-01T18:22:49.473Z,16.43
2022-12-01T18:25:19.910Z,15.37
2022-12-01T18:27:48.526Z,15.47
2022-12-01T18:30:17.696Z,16.87
2022-12-01T18:32:47.911Z,17.00
2022-12-01T18:35:16.356Z,16.33
2022-12-01T18:37:44.610Z,17.17
2022-12-01T18:40:15.309Z,15.50
2022-12-01T18:42:43.344Z,14.93
2022-12-01T18:45:16.611Z,16.70
2022-12-01T18:47:48.745Z,17.63
2022-12-01T18:50:16.919Z,16.07
2022-12-01T18:52:44.994Z,16.53
2022-12-01T18:55:16.934Z,16.30
2022-12-01T18:58:05.541Z,16.83
2022-12-01T19:00:36.348Z,17.87
2022-12-01T19:03:07.526Z,18.63
2022-12-01T19:05:38.517Z,16.20
2022-12-01T19:08:07.061Z,17.13
2022-12-01T19:10:36.919Z,17.13
2022-12-01T19:13:12.815Z,17.23
2022-12-01T19:15:41.047Z,16.77
2022-12-01T19:18:09.681Z,15.70
2022-12-01T19:20:41.536Z,16.87
2022-12-01T19:23:10.341Z,17.50
2022-12-01T19:25:43.270Z,17.90
2022-12-01T19:28:13.840Z,16.53
2022-12-01T19:30:47.944Z,17.20
2022-12-01T19:33:20.016Z,18.50
2022-12-01T19:35:51.041Z,17.37
2022-12-01T19:38:20.645Z,18.90
2022-12-01T19:40:54.758Z,17.83
2022-12-01T19:43:25.655Z,15.70
2022-12-01T19:45:56.681Z,17.80
2022-12-01T19:48:25.454Z,16.00
2022-12-01T19:50:55.973Z,16.00
2022-12-01T19:53:30.489Z,16.13
2022-12-01T19:56:05.446Z,17.07
2022-12-01T19:58:34.250Z,15.73
2022-12-01T20:01:09.201Z,17.03
2022-12-01T20:03:38.016Z,16.53
2022-12-01T20:06:08.725Z,17.47
2022-12-01T20:08:39.429Z,16.67
2022-12-01T20:11:11.425Z,18.33
2022-12-01T20:13:41.271Z,18.43
2022-12-01T20:16:12.157Z,17.13
2022-12-01T20:18:41.914Z,15.90
2022-12-01T20:21:16.251Z,17.10
2022-12-01T20:23:45.909Z,17.97
2022-12-01T20:26:20.617Z,17.07
2022-12-01T20:28:51.469Z,16.37
2022-12-01T20:31:21.936Z,17.10
2022-12-01T20:33:52.378Z,17.77
2022-12-01T20:36:25.136Z,17.97
2022-12-01T20:38:53.359Z,18.20
2022-12-01T20:41:23.366Z,17.57
2022-12-01T20:43:53.642Z,17.43
2022-12-01T20:46:23.689Z,17.10
2022-12-01T20:48:51.842Z,16.57
2022-12-01T20:51:20.454Z,16.30
2022-12-01T20:54:19.791Z,16.00
2022-12-01T20:56:43.894Z,20.73
2022-12-01T20:59:12.640Z,21.30
2022-12-01T21:01:40.566Z,22.80
2022-12-01T21:04:08.686Z,18.10
2022-12-01T21:06:36.772Z,18.07
2022-12-01T21:09:07.427Z,17.67
2022-12-01T21:11:56.866Z,18.37
2022-12-01T21:14:31.276Z,16.33
2022-12-01T21:17:07.278Z,17.03
2022-12-01T21:19:46.946Z,17.40
2022-12-01T21:22:15.565Z,16.80
2022-12-01T21:24:54.927Z,17.00
2022-12-01T21:27:23.023Z,17.37
2022-12-01T21:29:52.653Z,16.10
2022-12-01T21:32:30.551Z,17.13
2022-12-01T21:35:04.963Z,15.77
2022-12-01T21:37:33.303Z,16.27
2022-12-01T21:40:01.749Z,16.23
2022-12-01T21:42:32.834Z,15.80
2022-12-01T21:45:02.570Z,15.70
2022-12-01T21:47:31.611Z,14.90
2022-12-01T21:50:04.438Z,15.10
2022-12-01T21:52:43.693Z,15.80
2022-12-01T21:55:37.220Z,15.00
2022-12-01T21:58:22.463Z,13.70
2022-12-01T22:00:53.291Z,14.90
2022-12-01T22:03:28.476Z,14.87
2022-12-01T22:06:28.400Z,14.90
2022-12-01T22:08:52.753Z,13.63
2022-12-01T22:11:23.262Z,15.90
2022-12-01T22:13:56.792Z,14.10
2022-12-01T22:16:31.251Z,14.47
2022-12-01T22:19:03.033Z,13.60
2022-12-01T22:21:38.109Z,16.13
2022-12-01T22:24:23.309Z,14.23
2022-12-01T22:27:05.039Z,14.40
2022-12-01T22:29:38.020Z,14.30
2022-12-01T22:32:45.651Z,13.70
2022-12-01T22:35:32.442Z,15.40
2022-12-01T22:38:35.110Z,14.37
2022-12-01T22:41:07.475Z,15.43
2022-12-01T22:43:48.867Z,14.00
2022-12-01T22:46:24.143Z,15.30
2022-12-01T22:48:56.008Z,14.50
2022-12-01T22:51:31.275Z,14.43
2022-12-01T22:54:03.360Z,14.53
2022-12-01T22:56:39.363Z,14.27
2022-12-01T22:59:16.049Z,13.37
2022-12-01T23:01:50.378Z,14.27
2022-12-01T23:04:27.478Z,14.13
2022-12-01T23:07:09.422Z,13.80
2022-12-01T23:09:42.713Z,14.67
2022-12-01T23:12:29.972Z,13.60
2022-12-01T23:15:00.652Z,14.73
2022-12-01T23:17:38.854Z,13.47
2022-12-01T23:20:32.808Z,14.30
2022-12-01T23:23:03.363Z,15.50
2022-12-01T23:25:35.877Z,14.57
2022-12-01T23:28:07.769Z,16.47
2022-12-01T23:30:37.746Z,13.97
2022-12-01T23:33:14.876Z,14.57
2022-12-01T23:35:48.320Z,13.77
2022-12-01T23:38:22.391Z,14.43
2022-12-01T23:40:53.543Z,14.07
2022-12-01T23:43:24.726Z,15.03
2022-12-01T23:46:04.655Z,14.90
2022-12-01T23:48:35.898Z,13.43
2022-12-01T23:51:12.919Z,16.87
2022-12-01T23:53:43.103Z,13.73
2022-12-01T23:56:16.244Z,15.30
2022-12-01T23:58:45.940Z,14.70
